createdAt,value
2023-05-25T00:00:57.539Z,101011.22
2023-05-25T00:04:04.656Z,101015.94
2023-05-25T00:07:07.320Z,101025.66
2023-05-25T00:10:10.187Z,101022.06
2023-05-25T00:13:12.664Z,101019.63
2023-05-25T00:16:14.982Z,101026.72
2023-05-25T00:19:18.746Z,101017.47
2023-05-25T00:22:21.382Z,101011.47
2023-05-25T00:25:23.797Z,101002.16
2023-05-25T00:28:26.371Z,101004.06
2023-05-25T00:31:29.916Z,101016.09
2023-05-25T00:34:32.521Z,101008.41
2023-05-25T00:37:34.900Z,101020.78
2023-05-25T00:40:38.699Z,101016.91
2023-05-25T00:43:40.972Z,101007.94
2023-05-25T00:46:48.732Z,101004.06
2023-05-25T00:49:51.746Z,101004.63
2023-05-25T00:52:54.790Z,101000.78
2023-05-25T00:56:08.922Z,101020.22
2023-05-25T00:59:12.953Z,101022.94
2023-05-25T01:02:17.686Z,101015.28
2023-05-25T01:05:22.500Z,101012.22
2023-05-25T01:08:27.071Z,101008.69
2023-05-25T01:11:33.162Z,101016.66
2023-05-25T01:14:35.932Z,101015.53
2023-05-25T01:17:38.973Z,101023.16
2023-05-25T01:20:58.254Z,101019.88
2023-05-25T01:24:08.719Z,101012.53
2023-05-25T01:27:41.301Z,101016.34
2023-05-25T01:30:47.297Z,101014.16
2023-05-25T01:33:51.783Z,101017.69
2023-05-25T01:36:54.520Z,101018.25
2023-05-25T01:39:56.933Z,101014.97
2023-05-25T01:42:59.410Z,101020.69
2023-05-25T01:46:16.055Z,101026.16
2023-05-25T01:49:57.420Z,101027.81
2023-05-25T01:53:11.019Z,101026.38
2023-05-25T01:56:14.409Z,101025.31
2023-05-25T01:59:21.523Z,101036.50
2023-05-25T02:02:24.837Z,101037.66
2023-05-25T02:05:28.206Z,101034.34
2023-05-25T02:08:30.878Z,101034.31
2023-05-25T02:11:35.667Z,101028.59
2023-05-25T02:14:38.101Z,101034.59
2023-05-25T02:17:40.647Z,101041.72
2023-05-25T02:20:44.040Z,101040.63
2023-05-25T02:23:46.625Z,101043.94
2023-05-25T02:26:49.121Z,101040.38
2023-05-25T02:29:53.437Z,101037.13
2023-05-25T02:32:56.794Z,101044.50
2023-05-25T02:35:59.356Z,101035.47
2023-05-25T02:39:02.395Z,101036.81
2023-05-25T02:42:04.960Z,101043.66
2023-05-25T02:45:13.549Z,101047.78
2023-05-25T02:48:16.709Z,101052.13
2023-05-25T02:51:19.679Z,101047.78
2023-05-25T02:54:22.289Z,101044.22
2023-05-25T02:57:24.652Z,101048.59
2023-05-25T03:00:27.521Z,101054.03
2023-05-25T03:03:29.923Z,101052.38
2023-05-25T03:06:33.471Z,101053.16
2023-05-25T03:09:44.691Z,101056.41
2023-05-25T03:12:47.641Z,101037.59
2023-05-25T03:15:50.215Z,101043.59
2023-05-25T03:18:55.183Z,101056.72
2023-05-25T03:21:58.396Z,101049.63
2023-05-25T03:25:00.773Z,101063.28
2023-05-25T03:28:03.412Z,101067.94
2023-05-25T03:31:05.891Z,101082.44
2023-05-25T03:34:08.892Z,101082.16
2023-05-25T03:37:13.620Z,101081.63
2023-05-25T03:40:17.526Z,101085.50
2023-05-25T03:43:19.956Z,101099.97
2023-05-25T03:46:23.796Z,101093.16
2023-05-25T03:49:26.282Z,101094.75
2023-05-25T03:52:28.844Z,101106.00
2023-05-25T03:55:32.533Z,101087.72
2023-05-25T03:58:34.911Z,101098.94
2023-05-25T04:01:39.126Z,101092.38
2023-05-25T04:04:42.070Z,101097.63
2023-05-25T04:07:44.592Z,101088.91
2023-05-25T04:10:47.575Z,101089.56
2023-05-25T04:13:49.888Z,101078.94
2023-05-25T04:16:53.672Z,101081.41
2023-05-25T04:19:56.844Z,101081.69
2023-05-25T04:22:59.372Z,101084.72
2023-05-25T04:26:02.269Z,101087.22
2023-05-25T04:29:04.918Z,101086.41
2023-05-25T04:32:21.727Z,101083.44
2023-05-25T04:35:31.830Z,101083.78
2023-05-25T04:38:34.355Z,101078.41
2023-05-25T04:41:38.025Z,101084.28
2023-05-25T04:44:44.350Z,101074.72
2023-05-25T04:47:47.665Z,101072.00
2023-05-25T04:50:50.212Z,101079.63
2023-05-25T04:53:52.729Z,101075.81
2023-05-25T04:56:55.320Z,101084.41
2023-05-25T04:59:58.606Z,101078.94
2023-05-25T05:03:01.383Z,101070.38
2023-05-25T05:06:04.105Z,101080.78
2023-05-25T05:09:08.983Z,101071.59
2023-05-25T05:12:12.183Z,101062.00
2023-05-25T05:15:20.967Z,101059.69
2023-05-25T05:18:25.515Z,101059.81
2023-05-25T05:21:28.446Z,101068.59
2023-05-25T05:24:31.148Z,101059.53
2023-05-25T05:27:35.045Z,101073.16
2023-05-25T05:30:46.683Z,101074.06
2023-05-25T05:33:49.981Z,101069.50
2023-05-25T05:36:57.342Z,101075.03
2023-05-25T05:40:01.735Z,101076.53
2023-05-25T05:43:04.240Z,101075.06
2023-05-25T05:46:06.829Z,101083.22
2023-05-25T05:49:09.250Z,101081.41
2023-05-25T05:52:12.440Z,101048.25
2023-05-25T05:55:14.856Z,101075.25
2023-05-25T05:58:18.686Z,101081.44
2023-05-25T06:01:22.233Z,101086.56
2023-05-25T06:04:28.928Z,101086.31
2023-05-25T06:07:35.271Z,101081.06
2023-05-25T06:10:39.160Z,101100.81
2023-05-25T06:13:42.081Z,101102.34
2023-05-25T06:16:45.332Z,101108.06
2023-05-25T06:19:48.464Z,101111.31
2023-05-25T06:22:51.105Z,101115.66
2023-05-25T06:25:55.375Z,101126.31
2023-05-25T06:28:57.927Z,101131.03
2023-05-25T06:32:00.936Z,101126.59
2023-05-25T06:35:05.316Z,101128.69
2023-05-25T06:38:08.118Z,101139.00
2023-05-25T06:41:13.020Z,101126.78
2023-05-25T06:44:15.848Z,101084.50
2023-05-25T06:47:22.533Z,101130.38
2023-05-25T06:50:25.012Z,101123.88
2023-05-25T06:53:27.612Z,101112.81
2023-05-25T06:56:32.629Z,101108.09
2023-05-25T06:59:34.989Z,101098.81
2023-05-25T07:02:37.431Z,101114.41
2023-05-25T07:05:39.887Z,101113.31
2023-05-25T07:08:42.295Z,101114.59
2023-05-25T07:11:44.688Z,101115.22
2023-05-25T07:14:48.571Z,101119.78
2023-05-25T07:17:50.955Z,101120.72
2023-05-25T07:20:53.639Z,101108.34
2023-05-25T07:23:56.293Z,101114.84
2023-05-25T07:26:58.705Z,101118.69
2023-05-25T07:30:01.172Z,101123.59
2023-05-25T07:33:03.756Z,101120.13
2023-05-25T07:36:06.615Z,101121.72
2023-05-25T07:39:09.331Z,101125.91
2023-05-25T07:42:11.857Z,101133.66
2023-05-25T07:45:14.325Z,101143.19
2023-05-25T07:48:16.901Z,101132.75
2023-05-25T07:51:19.318Z,101146.19
2023-05-25T07:54:21.867Z,101151.34
2023-05-25T07:57:25.410Z,101149.31
2023-05-25T08:00:28.286Z,101145.13
2023-05-25T08:03:44.287Z,101151.63
2023-05-25T08:06:51.920Z,101155.50
2023-05-25T08:09:54.469Z,101145.34
2023-05-25T08:12:58.845Z,101147.59
2023-05-25T08:16:01.516Z,101146.16
2023-05-25T08:19:03.999Z,101156.56
2023-05-25T08:22:06.434Z,101146.81
2023-05-25T08:25:09.091Z,101152.00
2023-05-25T08:28:11.876Z,101152.97
2023-05-25T08:31:14.350Z,101156.72
2023-05-25T08:34:17.417Z,101151.50
2023-05-25T08:37:21.404Z,101150.50
2023-05-25T08:40:24.130Z,101151.00
2023-05-25T08:43:26.645Z,101147.47
2023-05-25T08:46:33.545Z,101137.25
2023-05-25T08:49:38.687Z,101142.22
2023-05-25T08:52:49.439Z,101135.56
2023-05-25T08:55:54.114Z,101140.44
2023-05-25T08:59:27.081Z,101142.25
2023-05-25T09:02:40.583Z,101139.22
2023-05-25T09:05:43.288Z,101137.06
2023-05-25T09:08:46.347Z,101137.06
2023-05-25T09:11:48.878Z,101146.38
2023-05-25T09:14:51.564Z,101137.78
2023-05-25T09:17:54.040Z,101138.75
2023-05-25T09:20:57.156Z,101138.41
2023-05-25T09:24:01.161Z,101136.41
2023-05-25T09:27:04.086Z,101146.84
2023-05-25T09:30:07.121Z,101138.22
2023-05-25T09:33:18.704Z,101140.63
2023-05-25T09:36:23.360Z,101145.50
2023-05-25T09:39:27.279Z,101147.00
2023-05-25T09:42:30.317Z,101146.41
2023-05-25T09:45:33.074Z,101138.94
2023-05-25T09:48:35.554Z,101146.84
2023-05-25T09:51:38.286Z,101139.91
2023-05-25T09:54:40.958Z,101141.56
2023-05-25T09:57:44.875Z,101145.00
2023-05-25T10:00:47.476Z,101153.88
2023-05-25T10:04:02.869Z,101150.25
2023-05-25T10:07:06.748Z,101154.56
2023-05-25T10:10:11.295Z,101146.50
2023-05-25T10:13:15.107Z,101157.78
2023-05-25T10:16:18.901Z,101150.16
2023-05-25T10:19:23.297Z,101154.38
2023-05-25T10:22:59.878Z,101144.00
2023-05-25T10:26:04.518Z,101145.56
2023-05-25T10:29:07.752Z,101149.00
2023-05-25T10:32:10.266Z,101161.31
2023-05-25T10:35:13.103Z,101160.28
2023-05-25T10:38:15.700Z,101161.63
2023-05-25T10:41:20.343Z,101150.78
2023-05-25T10:44:23.056Z,101155.25
2023-05-25T10:47:25.731Z,101157.34
2023-05-25T10:50:28.795Z,101162.28
2023-05-25T10:53:31.421Z,101145.38
2023-05-25T10:56:34.214Z,101153.78
2023-05-25T10:59:36.609Z,101159.56
2023-05-25T11:02:55.137Z,101156.53
2023-05-25T11:05:57.552Z,101160.47
2023-05-25T11:09:03.271Z,101147.94
2023-05-25T11:12:06.631Z,101153.72
2023-05-25T11:15:15.411Z,101143.16
2023-05-25T11:18:18.310Z,101139.53
2023-05-25T11:21:32.477Z,101143.94
2023-05-25T11:24:34.862Z,101131.53
2023-05-25T11:27:46.844Z,101139.22
2023-05-25T11:30:49.397Z,101143.34
2023-05-25T11:33:57.528Z,101142.06
2023-05-25T11:37:04.062Z,101139.56
2023-05-25T11:40:08.104Z,101142.31
2023-05-25T11:43:11.764Z,101129.38
2023-05-25T11:46:15.039Z,101137.88
2023-05-25T11:49:17.477Z,101132.38
2023-05-25T11:52:22.326Z,101136.94
2023-05-25T11:55:24.800Z,101128.72
2023-05-25T11:58:34.446Z,101131.53
2023-05-25T12:01:36.986Z,101136.94
2023-05-25T12:04:40.820Z,101131.09
2023-05-25T12:07:46.763Z,101134.94
2023-05-25T12:10:52.340Z,101140.47
2023-05-25T12:13:55.146Z,101136.34
2023-05-25T12:16:57.949Z,101127.13
2023-05-25T12:20:01.156Z,101137.41
2023-05-25T12:23:03.721Z,101132.66
2023-05-25T12:26:11.901Z,101121.97
2023-05-25T12:29:14.474Z,101130.03
2023-05-25T12:32:17.133Z,101133.75
2023-05-25T12:35:19.721Z,101129.59
2023-05-25T12:38:22.282Z,101129.56
2023-05-25T12:41:24.846Z,101121.44
2023-05-25T12:44:35.055Z,101114.75
2023-05-25T12:47:37.698Z,101116.38
2023-05-25T12:50:41.031Z,101098.38
2023-05-25T12:53:54.274Z,101094.28
2023-05-25T12:57:00.124Z,101062.16
2023-05-25T13:00:02.581Z,101111.03
2023-05-25T13:03:08.494Z,101106.97
2023-05-25T13:06:10.987Z,101101.41
2023-05-25T13:09:14.210Z,101104.91
2023-05-25T13:12:16.947Z,101108.47
2023-05-25T13:15:21.899Z,101099.81
2023-05-25T13:18:24.285Z,101101.56
2023-05-25T13:21:26.882Z,101098.50
2023-05-25T13:24:29.248Z,101103.09
2023-05-25T13:27:31.695Z,101103.13
2023-05-25T13:30:34.096Z,101097.34
2023-05-25T13:33:36.520Z,101106.28
2023-05-25T13:36:38.961Z,101102.75
2023-05-25T13:39:42.255Z,101102.00
2023-05-25T13:42:44.662Z,101089.47
2023-05-25T13:45:47.946Z,101088.09
2023-05-25T13:48:50.615Z,101087.00
2023-05-25T13:51:53.058Z,101082.84
2023-05-25T13:54:55.619Z,101091.28
2023-05-25T13:57:58.061Z,101080.56
2023-05-25T14:01:00.816Z,101081.06
2023-05-25T14:04:04.259Z,101071.13
2023-05-25T14:07:06.755Z,101068.19
2023-05-25T14:10:10.014Z,101068.09
2023-05-25T14:13:13.096Z,101065.97
2023-05-25T14:16:16.036Z,101067.47
2023-05-25T14:19:18.437Z,101069.94
2023-05-25T14:22:21.302Z,101061.00
2023-05-25T14:25:23.769Z,101066.53
2023-05-25T14:28:26.531Z,101059.53
2023-05-25T14:31:28.964Z,101067.31
2023-05-25T14:34:31.490Z,101066.44
2023-05-25T14:37:34.135Z,101068.81
2023-05-25T14:40:36.596Z,101068.81
2023-05-25T14:43:39.029Z,101068.13
2023-05-25T14:46:41.923Z,101072.63
2023-05-25T14:49:44.992Z,101073.66
2023-05-25T14:52:47.391Z,101070.38
2023-05-25T14:55:49.752Z,101072.13
2023-05-25T14:58:52.391Z,101069.19
2023-05-25T15:01:54.958Z,101060.53
2023-05-25T15:04:57.456Z,101067.00
2023-05-25T15:07:59.751Z,101062.84
2023-05-25T15:11:02.177Z,101074.38
2023-05-25T15:14:04.603Z,101074.41
2023-05-25T15:17:07.535Z,101068.38
2023-05-25T15:20:10.723Z,101079.50
2023-05-25T15:23:13.188Z,101093.13
2023-05-25T15:26:15.541Z,101084.09
2023-05-25T15:29:17.917Z,101081.19
2023-05-25T15:32:20.923Z,101092.94
2023-05-25T15:35:23.349Z,101092.03
2023-05-25T15:38:25.703Z,101090.75
2023-05-25T15:41:28.211Z,101091.06
2023-05-25T15:44:30.832Z,101084.59
2023-05-25T15:47:33.367Z,101086.13
2023-05-25T15:50:36.075Z,101087.97
2023-05-25T15:53:38.510Z,101074.06
2023-05-25T15:56:40.970Z,101088.81
2023-05-25T15:59:43.354Z,101074.03
2023-05-25T16:02:45.931Z,101085.16
2023-05-25T16:05:48.300Z,101087.56
2023-05-25T16:08:50.755Z,101086.41
2023-05-25T16:11:53.381Z,101081.34
2023-05-25T16:14:56.114Z,101078.47
2023-05-25T16:17:58.997Z,101088.44
2023-05-25T16:21:01.810Z,101081.19
2023-05-25T16:24:05.688Z,101084.06
2023-05-25T16:27:08.386Z,101087.63
2023-05-25T16:30:13.292Z,101082.03
2023-05-25T16:33:16.112Z,101081.25
2023-05-25T16:36:18.626Z,101085.81
2023-05-25T16:39:21.070Z,101091.22
2023-05-25T16:42:25.238Z,101089.41
2023-05-25T16:45:27.649Z,101092.75
2023-05-25T16:48:31.450Z,101085.56
2023-05-25T16:51:33.974Z,101089.03
2023-05-25T16:54:36.420Z,101094.06
2023-05-25T16:57:38.794Z,101098.53
2023-05-25T17:00:42.782Z,101097.88
2023-05-25T17:03:45.228Z,101094.28
2023-05-25T17:06:47.763Z,101096.06
2023-05-25T17:09:50.207Z,101095.84
2023-05-25T17:12:52.699Z,101089.59
2023-05-25T17:15:55.139Z,101100.50
2023-05-25T17:18:57.584Z,101103.84
2023-05-25T17:22:00.058Z,101104.53
2023-05-25T17:25:02.484Z,101100.28
2023-05-25T17:28:04.886Z,101109.59
2023-05-25T17:31:09.461Z,101099.78
2023-05-25T17:34:12.068Z,101119.41
2023-05-25T17:37:14.728Z,101111.19
2023-05-25T17:40:17.137Z,101118.53
2023-05-25T17:43:19.566Z,101126.63
2023-05-25T17:46:22.469Z,101126.38
2023-05-25T17:49:24.967Z,101124.03
2023-05-25T17:52:29.431Z,101128.41
2023-05-25T17:55:32.011Z,101130.72
2023-05-25T17:58:34.452Z,101127.94
2023-05-25T18:01:37.253Z,101126.31
2023-05-25T18:04:39.753Z,101133.09
2023-05-25T18:07:42.148Z,101143.94
2023-05-25T18:10:44.601Z,101146.03
2023-05-25T18:13:46.993Z,101153.38
2023-05-25T18:16:49.478Z,101154.22
2023-05-25T18:19:52.025Z,101154.50
2023-05-25T18:22:54.456Z,101152.91
2023-05-25T18:25:56.890Z,101168.03
2023-05-25T18:28:59.282Z,101158.94
2023-05-25T18:32:01.720Z,101157.63
2023-05-25T18:35:04.358Z,101166.03
2023-05-25T18:38:06.923Z,101167.50
2023-05-25T18:41:09.255Z,101171.81
2023-05-25T18:44:11.959Z,101169.63
2023-05-25T18:47:14.551Z,101176.38
2023-05-25T18:50:17.165Z,101182.13
2023-05-25T18:53:19.675Z,101176.31
2023-05-25T18:56:22.946Z,101186.66
2023-05-25T18:59:25.467Z,101182.78
2023-05-25T19:02:29.319Z,101185.97
2023-05-25T19:05:31.881Z,101196.88
2023-05-25T19:08:34.349Z,101195.28
2023-05-25T19:11:36.705Z,101194.09
2023-05-25T19:14:39.128Z,101195.13
2023-05-25T19:17:41.571Z,101200.84
2023-05-25T19:20:44.052Z,101210.13
2023-05-25T19:23:47.683Z,101208.31
2023-05-25T19:26:51.609Z,101221.44
2023-05-25T19:29:53.956Z,101220.63
2023-05-25T19:32:56.445Z,101229.69
2023-05-25T19:35:58.948Z,101223.91
2023-05-25T19:39:01.534Z,101225.84
2023-05-25T19:42:05.041Z,101228.09
2023-05-25T19:45:07.834Z,101227.84
2023-05-25T19:48:10.445Z,101202.00
2023-05-25T19:51:13.011Z,101237.25
2023-05-25T19:54:15.649Z,101236.09
2023-05-25T19:57:18.008Z,101245.34
2023-05-25T20:00:26.580Z,101246.34
2023-05-25T20:03:29.634Z,101245.53
2023-05-25T20:06:32.772Z,101248.09
2023-05-25T20:09:35.888Z,101251.53
2023-05-25T20:12:38.649Z,101258.41
2023-05-25T20:15:41.438Z,101260.13
2023-05-25T20:18:44.725Z,101253.28
2023-05-25T20:21:47.553Z,101253.06
2023-05-25T20:24:54.474Z,101253.97
2023-05-25T20:27:57.461Z,101249.56
2023-05-25T20:30:59.816Z,101247.47
2023-05-25T20:34:02.259Z,101247.13
2023-05-25T20:37:05.098Z,101261.88
2023-05-25T20:40:08.198Z,101255.16
2023-05-25T20:43:10.810Z,101254.13
2023-05-25T20:46:14.275Z,101250.78
2023-05-25T20:49:16.779Z,101248.03
2023-05-25T20:52:19.137Z,101257.94
2023-05-25T20:55:21.645Z,101259.16
2023-05-25T20:58:24.289Z,101263.16
2023-05-25T21:01:26.750Z,101262.66
2023-05-25T21:04:31.647Z,101261.94
2023-05-25T21:07:34.360Z,101266.69
2023-05-25T21:10:37.308Z,101264.56
2023-05-25T21:13:39.656Z,101252.50
2023-05-25T21:16:42.340Z,101267.38
2023-05-25T21:19:44.928Z,101255.34
2023-05-25T21:22:47.216Z,101261.22
2023-05-25T21:25:49.668Z,101261.47
2023-05-25T21:28:52.112Z,101258.81
2023-05-25T21:31:54.605Z,101266.63
2023-05-25T21:34:57.236Z,101267.47
2023-05-25T21:37:59.597Z,101265.03
2023-05-25T21:41:01.926Z,101270.25
2023-05-25T21:44:04.349Z,101270.91
2023-05-25T21:47:06.867Z,101257.78
2023-05-25T21:50:09.749Z,101259.19
2023-05-25T21:53:12.219Z,101268.53
2023-05-25T21:56:14.594Z,101263.06
2023-05-25T21:59:16.921Z,101271.28
2023-05-25T22:02:19.488Z,101266.13
2023-05-25T22:05:22.120Z,101264.75
2023-05-25T22:08:24.960Z,101253.81
2023-05-25T22:11:27.387Z,101265.31
2023-05-25T22:14:29.798Z,101259.81
2023-05-25T22:17:32.260Z,101264.16
2023-05-25T22:20:38.567Z,101269.38
2023-05-25T22:23:41.201Z,101265.22
2023-05-25T22:26:43.546Z,101267.94
2023-05-25T22:29:46.089Z,101263.56
2023-05-25T22:32:48.629Z,101265.19
2023-05-25T22:35:51.636Z,101265.94
2023-05-25T22:38:53.987Z,101270.56
2023-05-25T22:41:56.427Z,101280.66
2023-05-25T22:44:58.728Z,101278.75
2023-05-25T22:48:01.286Z,101270.22
2023-05-25T22:51:03.958Z,101274.03
2023-05-25T22:54:06.363Z,101276.75
2023-05-25T22:57:09.895Z,101273.13
2023-05-25T23:00:12.655Z,101267.72
2023-05-25T23:03:15.177Z,101279.69
2023-05-25T23:06:17.687Z,101276.91
2023-05-25T23:09:20.049Z,101273.00
2023-05-25T23:12:22.488Z,101271.34
2023-05-25T23:15:24.798Z,101273.19
2023-05-25T23:18:27.343Z,101271.25
2023-05-25T23:21:29.640Z,101254.19
2023-05-25T23:24:32.146Z,101273.28
2023-05-25T23:27:34.476Z,101272.25
2023-05-25T23:30:36.880Z,101264.59
2023-05-25T23:33:39.241Z,101266.75
2023-05-25T23:36:42.984Z,101264.44
2023-05-25T23:39:45.523Z,101271.25
2023-05-25T23:42:48.106Z,101267.72
2023-05-25T23:45:50.622Z,101261.72
2023-05-25T23:48:53.035Z,101265.97
2023-05-25T23:51:55.570Z,101273.88
2023-05-25T23:54:57.966Z,101268.47
2023-05-25T23:58:00.382Z,101268.97
